WSAP/QPG METAR and TAF weather

Enter ICAO airport designator
Station Type Date Time Source
WSAP METAR 2021/03/05 07:00 UTC NOAA

WSAP 050700Z 07011KT 9999 FEW024 BKN300 34/22 Q1010


Station Type Date Time Source
WSAP Decoded METAR 2021/03/05 07:00 UTC NOAA

Singapore / Paya Lebar, Singapore (WSAP) 01-22N 103-55E 32M
Mar 05, 2021 - 02:00 AM EST / 2021.03.05 0700 UTC
Wind: from the ENE (070 degrees) at 13 MPH (11 KT):0
Visibility: greater than 7 mile(s):0
Sky conditions: mostly cloudy
Temperature: 93 F (34 C)
Heat index: 100.0 F (37.8 C):1
Dew Point: 71 F (22 C)
Relative Humidity: 49%
Pressure (altimeter): 29.83 in. Hg (1010 hPa)
ob: WSAP 050700Z 07011KT 9999 FEW024 BKN300 34/22 Q1010
cycle: 7

Station Type Date Time Source
WSAP TAF 2021/03/05 06:15 UTC NOAA

TAF WSAP 050500Z 0506/0612 02011KT 9999 FEW015

Example: see airport list